Time;durP1;ratioP1;P1;durP2;ratioP2;P2;SDS_P1;SDS_P2;PMS_P1;PMS_P2;Temp;Humidity;BMP_temperature;BMP_pressure;BME280_temperature;BME280_humidity;BME280_pressure;Samples;Min_cycle;Max_cycle;Signal;HPM_P1;HPM_P2
2022/06/14 00:01:25;;;;;;;9.52;8.25;;;;;;;24.00;66.84;100931.59;5024510;28;19924;-81
2022/06/14 00:03:50;;;;;;;12.07;8.30;;;;;;;23.98;67.03;100922.69;5021561;28;20053;-81
2022/06/14 00:06:18;;;;;;;;;;;;;;;24.06;66.70;100920.94;5033036;28;20065;-81
2022/06/14 00:08:44;;;;;;;9.43;7.72;;;;;;;24.01;66.83;100927.19;5011090;28;19975;-81
2022/06/14 00:11:13;;;;;;;11.13;8.38;;;;;;;24.00;66.93;100926.25;5027157;28;20029;-80
2022/06/14 00:13:39;;;;;;;9.38;8.15;;;;;;;24.00;66.96;100926.25;5032503;28;20108;-81
2022/06/14 00:16:06;;;;;;;11.90;8.18;;;;;;;24.01;66.93;100924.50;5028792;28;20037;-81
2022/06/14 00:18:32;;;;;;;9.18;8.25;;;;;;;24.00;67.31;100925.38;5036084;28;20064;-81
2022/06/14 00:20:57;;;;;;;;;;;;;;;24.04;66.95;100929.84;5029169;28;20484;-81
2022/06/14 00:23:23;;;;;;;9.50;8.60;;;;;;;23.93;66.92;100927.16;5035118;28;20410;-84
2022/06/14 00:25:53;;;;;;;10.80;8.82;;;;;;;23.99;67.08;100945.84;5028805;28;20025;-81
2022/06/14 00:28:19;;;;;;;11.35;8.13;;;;;;;23.95;67.06;100925.38;5039187;28;20032;-81
2022/06/14 00:30:45;;;;;;;;;;;;;;;24.04;66.77;100936.03;5027686;28;20021;-81
2022/06/14 00:33:11;;;;;;;10.90;8.75;;;;;;;23.96;67.25;100937.81;5028381;28;20010;-81
2022/06/14 00:35:36;;;;;;;;;;;;;;;24.05;66.83;100929.84;5009324;28;20509;-84
2022/06/14 00:38:03;;;;;;;10.52;8.65;;;;;;;24.01;67.05;100929.84;5038962;28;19913;-82
2022/06/14 00:40:34;;;;;;;14.85;9.10;;;;;;;23.95;67.16;100925.38;5031748;28;20037;-81
2022/06/14 00:43:02;;;;;;;11.85;8.95;;;;;;;23.87;66.91;100909.34;5028067;28;20523;-81
2022/06/14 00:45:28;;;;;;;11.95;8.93;;;;;;;23.99;67.14;100927.16;5039146;28;20060;-81
2022/06/14 00:47:59;;;;;;;;;;;;;;;24.04;66.88;100924.50;5028680;28;20088;-81
2022/06/14 00:50:29;;;;;;;13.40;8.57;;;;;;;23.90;66.93;100913.81;5046948;28;19935;-81
2022/06/14 00:52:56;;;;;;;11.38;8.30;;;;;;;23.96;67.31;100924.47;5020375;28;20025;-81
2022/06/14 00:55:31;;;;;;;11.75;8.90;;;;;;;23.95;67.48;100933.38;5015436;28;20026;-81
2022/06/14 00:58:04;;;;;;;12.73;8.73;;;;;;;23.97;67.36;100923.59;5031227;28;20029;-80
2022/06/14 01:00:34;;;;;;;11.45;8.73;;;;;;;23.97;67.13;100929.81;5027783;28;20022;-81
2022/06/14 01:03:05;;;;;;;9.77;8.70;;;;;;;23.97;67.21;100932.50;5027743;28;20075;-81
2022/06/14 01:06:05;;;;;;;11.23;9.02;;;;;;;23.95;67.06;100923.59;5031620;28;20068;-80
2022/06/14 01:08:22;;;;;;;9.85;8.73;;;;;;;23.72;67.03;100886.19;5025172;28;20447;-80
2022/06/14 01:10:48;;;;;;;11.20;9.35;;;;;;;23.97;67.40;100924.50;5041211;28;20025;-81
2022/06/14 01:13:16;;;;;;;13.63;9.38;;;;;;;23.97;67.07;100929.81;5015130;28;20030;-81
2022/06/14 01:15:42;;;;;;;10.07;9.05;;;;;;;23.96;67.11;100928.06;5025387;28;20076;-82
2022/06/14 01:18:11;;;;;;;11.13;8.98;;;;;;;23.94;67.04;100921.81;5012730;28;20476;-80
2022/06/14 01:20:38;;;;;;;10.30;9.30;;;;;;;23.96;67.18;100941.41;5018362;28;20381;-81
2022/06/14 01:23:05;;;;;;;12.70;9.52;;;;;;;23.95;67.08;100925.38;5037354;28;20029;-82
2022/06/14 01:25:35;;;;;;;10.13;8.93;;;;;;;23.94;67.06;100923.63;5025587;28;20030;-82
2022/06/14 01:28:02;;;;;;;11.50;9.73;;;;;;;23.96;67.15;100927.13;5018934;28;20057;-82
2022/06/14 01:30:31;;;;;;;12.52;9.38;;;;;;;23.84;67.38;100916.47;5003286;28;20467;-82
2022/06/14 01:33:09;;;;;;;12.45;9.50;;;;;;;23.77;67.29;100896.91;5029098;28;20025;-82
2022/06/14 01:35:36;;;;;;;12.10;9.50;;;;;;;23.90;67.30;100917.38;5011217;28;20121;-82
2022/06/14 01:38:06;;;;;;;13.27;9.57;;;;;;;23.95;67.38;100936.03;5016982;28;20032;-82
2022/06/14 01:40:52;;;;;;;10.27;9.27;;;;;;;23.94;67.25;100927.16;5040988;28;20033;-82
2022/06/14 01:43:54;;;;;;;11.63;9.40;;;;;;;23.93;67.31;100937.81;5014341;28;20029;-82
2022/06/14 01:46:23;;;;;;;13.13;9.18;;;;;;;23.94;67.34;100934.28;5039010;28;20033;-82
2022/06/14 01:52:14;;;;;;;10.05;9.05;;;;;;;23.92;67.25;100944.94;5032260;28;20505;-81
2022/06/14 01:54:50;;;;;;;11.52;9.30;;;;;;;23.92;67.31;100939.59;5034665;28;20036;-80
2022/06/14 01:57:25;;;;;;;10.88;9.73;;;;;;;23.91;67.18;100940.47;5033758;28;20021;-80
2022/06/14 01:59:59;;;;;;;13.25;10.18;;;;;;;23.91;67.46;100939.59;5040778;28;20029;-81
2022/06/14 02:02:32;;;;;;;10.88;9.38;;;;;;;23.86;67.37;100939.59;5039019;28;20025;-81
2022/06/14 02:05:16;;;;;;;11.02;9.60;;;;;;;23.92;67.49;100942.28;5053228;28;20021;-81
2022/06/14 02:08:06;;;;;;;11.88;9.98;;;;;;;23.81;67.42;100928.00;5042491;28;20036;-81
2022/06/14 02:10:38;;;;;;;12.45;10.25;;;;;;;23.84;67.60;100930.69;5031893;28;20483;-82
2022/06/14 02:13:18;;;;;;;11.27;9.77;;;;;;;23.92;67.46;100947.59;5015712;28;20116;-82
2022/06/14 02:15:49;;;;;;;11.30;9.75;;;;;;;23.91;67.38;100942.25;5015989;28;20036;-81
2022/06/14 02:18:35;;;;;;;12.27;9.57;;;;;;;23.92;67.54;100947.59;5031776;28;20474;-82
2022/06/14 02:21:33;;;;;;;11.02;9.80;;;;;;;23.94;67.28;100944.94;5020141;28;20017;-82
2022/06/14 02:24:19;;;;;;;11.85;9.23;;;;;;;23.91;67.64;100950.25;5041212;28;20033;-81
2022/06/14 02:26:52;;;;;;;10.57;9.48;;;;;;;23.87;67.43;100946.69;5023295;28;20034;-81
2022/06/14 02:29:23;;;;;;;14.07;9.63;;;;;;;23.89;67.55;100947.59;5008092;28;20032;-82
2022/06/14 02:31:54;;;;;;;12.30;9.95;;;;;;;23.89;67.60;100957.38;5032371;28;20108;-82
2022/06/14 02:34:26;;;;;;;11.93;9.35;;;;;;;23.88;67.81;100958.28;5015175;28;20116;-81
2022/06/14 02:37:13;;;;;;;14.18;10.40;;;;;;;23.89;67.82;100966.25;5033804;28;20493;-81
2022/06/14 02:39:47;;;;;;;14.55;10.10;;;;;;;23.88;67.81;100959.16;5032038;28;20195;-81
2022/06/14 02:42:37;;;;;;;11.30;9.95;;;;;;;23.89;67.83;100957.38;5037919;28;20037;-79
2022/06/14 02:45:52;;;;;;;11.07;9.98;;;;;;;23.92;67.76;100954.72;5025173;28;20630;-81
2022/06/14 02:48:45;;;;;;;11.15;9.85;;;;;;;23.89;67.75;100955.59;5020143;28;20041;-82
2022/06/14 02:51:16;;;;;;;13.55;10.18;;;;;;;23.87;67.81;100953.81;5008098;28;20033;-82
2022/06/14 02:54:25;;;;;;;12.57;10.27;;;;;;;23.84;68.01;100964.47;5023558;28;20033;-82
2022/06/14 02:57:08;;;;;;;11.57;9.98;;;;;;;23.85;67.66;100956.47;5002413;28;20045;-82
2022/06/14 02:59:42;;;;;;;11.63;10.43;;;;;;;23.85;67.83;100959.13;5035337;28;20064;-81
2022/06/14 03:02:13;;;;;;;11.35;9.77;;;;;;;23.87;67.79;100961.81;5033853;28;20415;-80
2022/06/14 03:04:44;;;;;;;11.95;10.13;;;;;;;23.80;67.58;100947.56;5040867;28;20052;-81
2022/06/14 03:07:29;;;;;;;12.95;10.32;;;;;;;23.88;67.68;100969.81;5000466;28;20492;-80
2022/06/14 03:09:55;;;;;;;11.27;10.07;;;;;;;23.85;67.62;100969.81;5015915;28;20140;-80
2022/06/14 03:12:23;;;;;;;;;;;;;;;23.88;67.60;100967.16;5030395;28;20442;-80
2022/06/14 03:15:12;;;;;;;11.68;9.88;;;;;;;23.86;67.81;100968.94;5036406;28;19921;-80
2022/06/14 03:17:59;;;;;;;11.73;10.20;;;;;;;23.80;67.95;100962.69;5027286;28;20083;-80
2022/06/14 03:20:50;;;;;;;13.27;9.77;;;;;;;23.81;67.81;100969.78;5023758;28;20700;-80
2022/06/14 03:23:50;;;;;;;12.90;10.48;;;;;;;23.87;68.01;100976.03;5036244;28;20171;-80
2022/06/14 03:26:36;;;;;;;11.10;10.00;;;;;;;23.87;67.80;100973.38;5027787;28;20037;-80
2022/06/14 03:29:10;;;;;;;12.93;10.07;;;;;;;23.82;68.10;100967.13;5020453;28;20053;-81
2022/06/14 03:31:42;;;;;;;12.35;9.77;;;;;;;23.81;68.13;100965.34;5033359;28;20025;-81
2022/06/14 03:34:12;;;;;;;13.40;10.30;;;;;;;23.82;68.21;100961.81;5034990;28;20025;-81
2022/06/14 03:36:37;;;;;;;16.33;10.23;;;;;;;23.83;67.97;100950.22;5036804;28;20087;-81
2022/06/14 03:39:10;;;;;;;;;;;;;;;23.90;67.68;100962.72;5030731;28;20025;-81
2022/06/14 03:41:39;;;;;;;12.80;10.90;;;;;;;23.86;67.67;100963.59;5039409;28;19917;-81
2022/06/14 03:44:05;;;;;;;11.02;9.85;;;;;;;23.83;67.91;100962.69;5035809;28;20041;-81
2022/06/14 03:46:31;;;;;;;12.15;10.40;;;;;;;23.81;68.27;100962.69;5039267;28;20071;-81
2022/06/14 03:48:59;;;;;;;;;;;;;;;23.85;68.00;100958.25;5030481;28;20037;-81
2022/06/14 03:51:49;;;;;;;10.68;9.57;;;;;;;23.82;68.37;100963.59;5028098;28;19943;-81
2022/06/14 03:54:33;;;;;;;14.23;10.52;;;;;;;23.83;68.17;100960.91;5028688;28;20117;-81
2022/06/14 03:57:08;;;;;;;11.95;10.48;;;;;;;23.81;68.40;100968.00;5029050;28;20385;-81
2022/06/14 03:59:52;;;;;;;12.90;10.23;;;;;;;23.68;68.23;100942.16;5029638;28;20044;-82
2022/06/14 04:02:22;;;;;;;11.68;9.82;;;;;;;23.80;68.14;100962.69;5031070;28;20041;-81
2022/06/14 04:05:03;;;;;;;11.02;9.90;;;;;;;23.82;68.15;100969.81;5019587;28;20032;-81
2022/06/14 04:07:41;;;;;;;11.45;9.73;;;;;;;23.70;68.23;100940.41;5024876;28;20050;-81
2022/06/14 04:10:14;;;;;;;11.13;9.88;;;;;;;23.82;68.40;100968.94;5029899;28;20071;-80
2022/06/14 04:12:58;;;;;;;12.82;10.88;;;;;;;23.81;68.49;100973.34;5030949;28;20052;-81
2022/06/14 04:15:36;;;;;;;12.02;10.73;;;;;;;23.81;68.14;100976.00;5024154;28;20072;-81
2022/06/14 04:18:43;;;;;;;12.10;10.32;;;;;;;23.83;68.24;100976.91;5024882;28;20064;-82
2022/06/14 04:21:17;;;;;;;12.13;10.10;;;;;;;23.83;68.32;100981.34;4964719;28;20504;-82
2022/06/14 04:23:52;;;;;;;12.93;10.50;;;;;;;23.84;68.29;100983.16;5025512;28;20072;-82
2022/06/14 04:26:48;;;;;;;11.27;9.95;;;;;;;23.85;68.69;100987.59;5040665;28;20664;-82
2022/06/14 04:29:22;;;;;;;10.57;9.57;;;;;;;23.85;68.64;100999.13;5022846;28;20040;-82
2022/06/14 04:32:06;;;;;;;11.60;10.40;;;;;;;23.77;68.66;100991.13;5037534;28;20033;-82
2022/06/14 04:35:00;;;;;;;12.32;10.35;;;;;;;23.86;68.59;101000.94;5034277;28;20029;-82
2022/06/14 04:37:35;;;;;;;10.75;9.65;;;;;;;23.84;68.70;101000.03;5015483;28;20547;-82
2022/06/14 04:40:12;;;;;;;12.07;9.85;;;;;;;23.75;68.51;100994.66;5035519;28;20385;-82
2022/06/14 04:42:44;;;;;;;11.82;9.93;;;;;;;23.74;68.61;100999.06;5024843;28;20030;-82
2022/06/14 04:45:10;;;;;;;12.05;10.15;;;;;;;23.85;68.56;101015.13;5031661;28;20485;-82
2022/06/14 04:47:41;;;;;;;;;;;;;;;23.89;68.51;101021.38;5033743;28;20033;-82
2022/06/14 04:50:17;;;;;;;11.02;9.93;;;;;;;23.75;68.77;101000.00;5033509;28;19920;-81
2022/06/14 04:52:55;;;;;;;11.07;9.98;;;;;;;23.83;68.87;101011.56;5026156;28;20037;-82
2022/06/14 04:55:24;;;;;;;10.88;9.77;;;;;;;23.88;68.55;101022.28;5039779;28;20114;-82
2022/06/14 04:57:54;;;;;;;10.90;9.80;;;;;;;23.83;68.81;101016.91;5032109;28;20519;-82
2022/06/14 05:00:27;;;;;;;11.43;9.43;;;;;;;23.75;68.88;101000.00;5034243;28;20029;-82
2022/06/14 05:03:06;;;;;;;11.80;9.80;;;;;;;23.88;68.61;101024.94;5031745;28;20079;-82
2022/06/14 05:05:36;;;;;;;11.73;10.52;;;;;;;23.88;68.54;101025.84;5025917;28;20120;-82
2022/06/14 05:08:07;;;;;;;10.50;9.40;;;;;;;23.88;68.61;101030.28;5019084;28;20416;-82
2022/06/14 05:10:56;;;;;;;10.45;9.32;;;;;;;23.89;68.42;101022.28;5031400;28;20021;-81
2022/06/14 05:13:56;;;;;;;11.02;9.82;;;;;;;23.93;68.71;101037.41;5019532;28;20021;-83
2022/06/14 05:16:40;;;;;;;11.55;10.23;;;;;;;23.92;68.74;101038.31;5016510;28;20028;-81
2022/06/14 05:19:18;;;;;;;10.77;9.68;;;;;;;23.91;68.81;101040.94;5016344;28;20144;-82
2022/06/14 05:21:55;;;;;;;10.88;9.80;;;;;;;23.90;68.62;101048.06;5025265;28;20429;-84
2022/06/14 05:24:21;;;;;;;11.95;9.77;;;;;;;23.91;68.59;101048.97;5019490;28;20523;-82
2022/06/14 05:27:09;;;;;;;10.23;9.18;;;;;;;23.87;68.66;101048.03;5019650;28;20068;-82
2022/06/14 05:29:38;;;;;;;11.93;9.82;;;;;;;23.91;68.86;101049.84;5029619;28;20511;-82
2022/06/14 05:32:15;;;;;;;10.75;9.70;;;;;;;23.89;68.66;101051.59;5032294;28;20041;-82
2022/06/14 05:34:58;;;;;;;10.63;9.52;;;;;;;23.79;68.67;101028.44;5028798;28;20160;-83
2022/06/14 05:37:30;;;;;;;10.40;9.40;;;;;;;23.80;68.75;101040.91;5028172;28;20033;-83
2022/06/14 05:40:06;;;;;;;11.20;9.25;;;;;;;23.88;68.79;101049.84;5019716;28;20060;-83
2022/06/14 05:42:36;;;;;;;;;;;;;;;23.97;68.49;101064.97;5016753;28;20041;-84
2022/06/14 05:45:03;;;;;;;10.90;9.75;;;;;;;23.93;68.63;101071.19;5014921;28;19952;-85
2022/06/14 05:47:37;;;;;;;10.80;9.70;;;;;;;23.85;68.70;101060.47;5021546;28;20021;-85
2022/06/14 05:50:14;;;;;;;11.40;10.00;;;;;;;23.93;68.84;101082.75;5011827;28;20057;-83
2022/06/14 05:53:05;;;;;;;12.48;10.30;;;;;;;23.93;68.85;101080.06;5012751;28;20129;-81
2022/06/14 05:56:04;;;;;;;11.02;9.93;;;;;;;23.87;68.81;101082.72;5003463;28;20052;-84
2022/06/14 05:58:45;;;;;;;11.82;9.90;;;;;;;23.89;68.90;101107.63;5028758;28;20526;-83
2022/06/14 06:01:21;;;;;;;10.48;9.38;;;;;;;23.91;68.78;101107.63;5038263;28;20044;-84
2022/06/14 06:04:12;;;;;;;11.07;9.63;;;;;;;23.87;69.03;101096.06;5008426;28;20670;-84
2022/06/14 06:06:42;;;;;;;11.70;10.50;;;;;;;23.89;69.11;101104.06;5025875;28;20029;-84
2022/06/14 06:09:16;;;;;;;12.02;10.27;;;;;;;23.88;68.75;101091.63;5022793;28;20040;-84
2022/06/14 06:11:52;;;;;;;11.55;10.35;;;;;;;23.79;69.20;101087.13;5032687;28;20021;-85
2022/06/14 06:14:39;;;;;;;11.85;10.65;;;;;;;23.87;69.15;101101.38;5027685;28;20025;-85
2022/06/14 06:17:14;;;;;;;13.55;10.98;;;;;;;23.81;69.04;101090.69;5021146;28;20124;-85
2022/06/14 06:20:18;;;;;;;12.05;10.25;;;;;;;23.92;69.06;101102.31;5012810;28;20033;-84
2022/06/14 06:22:44;;;;;;;11.57;10.38;;;;;;;23.89;69.26;101109.41;4969157;28;20042;-86
2022/06/14 06:25:14;;;;;;;;;;;;;;;23.89;69.50;101099.63;4970514;28;20066;-85
2022/06/14 06:27:47;;;;;;;10.52;9.48;;;;;;;23.89;69.62;101104.97;4979477;28;19924;-85
2022/06/14 06:30:22;;;;;;;12.35;9.88;;;;;;;23.76;69.45;101084.47;5009632;28;20013;-84
2022/06/14 06:32:48;;;;;;;11.32;9.80;;;;;;;23.88;69.42;101084.50;5006901;28;20416;-84
2022/06/14 06:35:14;;;;;;;;;;;;;;;23.88;69.61;101091.63;5028555;28;20033;-84
2022/06/14 06:37:42;;;;;;;13.55;10.40;;;;;;;23.85;69.79;101089.81;5031540;28;20390;-84
2022/06/14 06:40:22;;;;;;;14.63;10.63;;;;;;;23.80;69.77;101088.91;5033403;28;20515;-84
2022/06/14 06:43:07;;;;;;;12.63;11.18;;;;;;;23.86;69.64;101093.41;5027508;28;20094;-84
2022/06/14 06:45:38;;;;;;;11.70;10.25;;;;;;;23.73;69.64;101065.75;5021029;28;20133;-84
2022/06/14 06:48:11;;;;;;;12.13;10.38;;;;;;;23.35;69.66;100991.81;5005265;28;20522;-84
2022/06/14 06:50:46;;;;;;;10.18;9.18;;;;;;;23.71;69.81;101059.53;5015281;28;20108;-83
2022/06/14 06:53:23;;;;;;;11.95;9.48;;;;;;;23.88;69.91;101083.63;5027318;28;20034;-83
2022/06/14 06:55:57;;;;;;;14.27;10.00;;;;;;;23.92;69.69;101088.09;5009864;28;20104;-83
2022/06/14 06:58:50;;;;;;;10.95;9.85;;;;;;;23.91;69.97;101086.31;5020469;28;20033;-83
2022/06/14 07:01:34;;;;;;;13.98;10.77;;;;;;;23.74;70.00;101059.53;5040952;28;20038;-83
2022/06/14 07:04:06;;;;;;;11.70;10.50;;;;;;;23.80;69.84;101069.38;5002703;28;20026;-83
2022/06/14 07:06:45;;;;;;;13.27;9.90;;;;;;;23.90;70.10;101090.75;5002461;28;20403;-83
2022/06/14 07:09:19;;;;;;;11.90;10.60;;;;;;;23.91;70.20;101084.50;5016002;28;20069;-82
2022/06/14 07:12:08;;;;;;;11.48;10.27;;;;;;;23.94;69.86;101084.53;5029651;28;20538;-83
2022/06/14 07:14:54;;;;;;;11.93;10.13;;;;;;;23.94;69.93;101073.88;5030539;28;20025;-83
2022/06/14 07:17:35;;;;;;;10.93;9.82;;;;;;;23.94;69.68;101065.00;5022758;28;20072;-83
2022/06/14 07:20:29;;;;;;;10.38;9.27;;;;;;;24.01;69.75;101082.78;5024224;28;20029;-82
2022/06/14 07:23:07;;;;;;;10.57;9.48;;;;;;;24.04;69.46;101076.56;5037226;28;20029;-83
2022/06/14 07:25:40;;;;;;;12.35;9.68;;;;;;;24.00;69.57;101070.31;5032797;28;20035;-82
2022/06/14 07:28:06;;;;;;;11.40;9.68;;;;;;;24.08;69.55;101083.69;5048303;28;20403;-82
2022/06/14 07:30:33;;;;;;;;;;;;;;;24.13;69.40;101079.25;5025973;28;20033;-82
2022/06/14 07:33:00;;;;;;;10.82;9.73;;;;;;;24.09;69.40;101074.81;5036069;28;19921;-82
2022/06/14 07:35:31;;;;;;;10.45;9.45;;;;;;;23.97;69.55;101056.97;5031906;28;20110;-82
2022/06/14 07:38:31;;;;;;;11.48;10.02;;;;;;;24.01;69.36;101074.78;5028440;28;20021;-82
2022/06/14 07:41:06;;;;;;;12.30;9.32;;;;;;;24.03;69.61;101066.78;5030968;28;20041;-82
2022/06/14 07:43:39;;;;;;;11.25;9.98;;;;;;;24.08;69.62;101081.91;5030054;28;20034;-82
2022/06/14 07:46:11;;;;;;;10.93;9.82;;;;;;;24.00;69.52;101067.66;5024317;28;20029;-82
2022/06/14 07:48:58;;;;;;;11.98;10.02;;;;;;;24.13;69.12;101089.91;5024646;28;20036;-81
2022/06/14 07:51:31;;;;;;;10.25;9.25;;;;;;;24.06;69.16;101081.00;5027449;28;20025;-81
2022/06/14 07:54:09;;;;;;;10.40;9.30;;;;;;;23.98;69.37;101058.75;5030396;28;20044;-82
2022/06/14 07:56:50;;;;;;;10.55;9.55;;;;;;;24.05;69.17;101070.38;5024516;28;20040;-80
2022/06/14 07:59:31;;;;;;;10.63;9.60;;;;;;;24.14;69.19;101086.38;5034518;28;20025;-83
2022/06/14 08:02:02;;;;;;;10.02;9.02;;;;;;;24.12;69.27;101074.81;5029770;28;20029;-82
2022/06/14 08:04:39;;;;;;;10.55;9.38;;;;;;;23.96;69.15;101060.53;5047817;28;20183;-82
2022/06/14 08:07:12;;;;;;;10.90;9.73;;;;;;;24.17;69.28;101095.31;5036122;28;20026;-82
2022/06/14 08:09:41;;;;;;;10.18;9.18;;;;;;;23.95;69.23;101056.09;5010759;28;20049;-84
2022/06/14 08:12:31;;;;;;;10.27;9.27;;;;;;;24.05;69.26;101068.56;5030435;28;20037;-83
2022/06/14 08:15:05;;;;;;;10.38;9.25;;;;;;;24.17;69.18;101092.63;5026565;28;20159;-83
2022/06/14 08:17:43;;;;;;;11.40;9.73;;;;;;;24.20;69.08;101094.41;5031852;28;20030;-83
2022/06/14 08:20:37;;;;;;;10.93;9.70;;;;;;;24.18;69.24;101093.53;5037043;28;20648;-83
2022/06/14 08:23:09;;;;;;;10.65;9.52;;;;;;;24.02;69.37;101076.56;5033521;28;20037;-82
2022/06/14 08:25:37;;;;;;;10.88;9.77;;;;;;;23.91;69.33;101055.16;5013599;28;20033;-82
2022/06/14 08:28:09;;;;;;;9.70;8.68;;;;;;;24.12;69.22;101083.72;5012365;28;20032;-82
2022/06/14 08:30:47;;;;;;;11.45;9.70;;;;;;;23.96;69.34;101057.84;5022540;28;20485;-82
2022/06/14 08:33:35;;;;;;;10.63;9.23;;;;;;;24.16;69.34;101084.63;5028358;28;20049;-83
2022/06/14 08:36:06;;;;;;;11.38;9.45;;;;;;;24.19;69.28;101089.94;5022621;28;20426;-82
2022/06/14 08:38:46;;;;;;;9.82;8.85;;;;;;;24.11;69.25;101083.72;5038236;28;20029;-83
2022/06/14 08:41:34;;;;;;;10.27;9.27;;;;;;;24.27;69.07;101100.66;5028694;28;20047;-83
2022/06/14 08:44:06;;;;;;;10.88;9.52;;;;;;;24.24;68.99;101104.22;5035890;28;20055;-83
2022/06/14 08:47:01;;;;;;;9.93;8.90;;;;;;;24.27;69.24;101109.53;5034359;28;20082;-81
2022/06/14 08:49:45;;;;;;;10.85;9.82;;;;;;;24.18;69.56;101096.19;5027804;28;20033;-82
2022/06/14 08:52:17;;;;;;;13.07;9.40;;;;;;;24.27;69.54;101106.88;5037283;28;20087;-83
2022/06/14 08:55:03;;;;;;;10.98;9.18;;;;;;;24.27;69.43;101111.34;5038381;28;20065;-83
2022/06/14 08:58:05;;;;;;;10.35;9.25;;;;;;;24.28;69.49;101108.69;5016604;28;20119;-83
2022/06/14 09:01:00;;;;;;;10.65;9.65;;;;;;;24.33;69.46;101111.34;5034479;28;20598;-82
2022/06/14 09:03:35;;;;;;;11.23;10.00;;;;;;;24.34;69.41;101110.44;5030872;28;20044;-83
2022/06/14 09:06:28;;;;;;;11.93;9.25;;;;;;;24.17;69.37;101070.38;5043351;28;20056;-83
2022/06/14 09:08:59;;;;;;;10.93;9.35;;;;;;;24.35;69.42;101106.91;5047148;28;20072;-83
2022/06/14 09:11:47;;;;;;;10.15;9.15;;;;;;;24.36;69.28;101109.59;5049876;28;20041;-83
2022/06/14 09:14:37;;;;;;;10.75;9.65;;;;;;;24.35;69.47;101114.91;5035783;28;20111;-83
2022/06/14 09:17:21;;;;;;;10.48;9.48;;;;;;;24.35;69.39;101115.81;5004385;28;20062;-82
2022/06/14 09:20:08;;;;;;;11.18;9.40;;;;;;;24.31;69.39;101103.34;5028125;28;20028;-83
2022/06/14 09:22:55;;;;;;;11.23;9.52;;;;;;;24.35;69.43;101097.13;5028931;28;20109;-83
2022/06/14 09:25:51;;;;;;;11.13;9.38;;;;;;;24.42;69.13;101111.38;5026449;28;20032;-83
2022/06/14 09:28:38;;;;;;;10.48;9.48;;;;;;;24.44;69.14;101111.38;5027699;28;20060;-82
2022/06/14 09:31:32;;;;;;;10.57;9.50;;;;;;;24.43;69.31;101109.63;5031569;28;20057;-84
2022/06/14 09:34:22;;;;;;;12.05;9.38;;;;;;;24.33;69.44;101098.00;5027637;28;20099;-83
2022/06/14 09:37:33;;;;;;;12.35;9.73;;;;;;;24.38;69.39;101098.91;5032552;28;20130;-83
2022/06/14 09:40:26;;;;;;;12.57;10.25;;;;;;;24.46;69.55;101110.50;5034514;28;20032;-82
2022/06/14 09:43:16;;;;;;;10.85;9.75;;;;;;;24.44;70.08;101114.06;5054015;28;20032;-82
2022/06/14 09:45:56;;;;;;;10.90;9.82;;;;;;;24.47;69.61;101119.38;5053657;28;20029;-82
2022/06/14 09:48:54;;;;;;;10.60;9.48;;;;;;;24.47;69.67;101122.06;5051579;28;20102;-81
2022/06/14 09:51:44;;;;;;;11.73;9.13;;;;;;;24.44;69.86;101120.28;5046423;28;20017;-82
2022/06/14 09:54:21;;;;;;;10.98;9.88;;;;;;;24.48;69.65;101114.06;5053846;28;20040;-82
2022/06/14 09:57:05;;;;;;;10.73;9.63;;;;;;;24.49;69.65;101114.97;5035097;28;20032;-82
2022/06/14 09:59:49;;;;;;;11.50;10.05;;;;;;;24.52;69.76;101115.88;5043910;28;20033;-83
2022/06/14 10:02:44;;;;;;;11.70;10.35;;;;;;;24.53;69.54;101108.75;5018187;28;20638;-83
2022/06/14 10:05:23;;;;;;;10.25;9.25;;;;;;;24.52;70.03;101107.88;5034657;28;20034;-83
2022/06/14 10:08:04;;;;;;;12.18;10.05;;;;;;;24.45;69.96;101094.47;5035420;28;20400;-82
2022/06/14 10:10:39;;;;;;;11.32;9.70;;;;;;;24.51;70.09;101107.84;5036830;28;20106;-82
2022/06/14 10:13:29;;;;;;;10.95;9.82;;;;;;;24.52;70.13;101115.88;5043128;28;20063;-83
2022/06/14 10:16:04;;;;;;;11.07;9.98;;;;;;;24.56;70.02;101103.44;5030351;28;20029;-81
2022/06/14 10:18:47;;;;;;;11.07;9.98;;;;;;;24.54;69.90;101110.56;5045454;28;20131;-81
2022/06/14 10:21:40;;;;;;;11.10;9.90;;;;;;;24.44;69.86;101082.91;5053091;28;20552;-82
2022/06/14 10:24:17;;;;;;;11.00;9.88;;;;;;;24.46;69.98;101089.13;5033230;28;20423;-81
2022/06/14 10:29:53;;;;;;;10.98;9.98;;;;;;;24.60;69.79;101104.34;5032671;28;20125;-83
2022/06/14 10:32:40;;;;;;;11.35;10.25;;;;;;;24.62;70.06;101102.53;5009399;28;20025;-82
2022/06/14 10:35:13;;;;;;;;;;;;;;;24.62;70.17;101099.88;5042778;28;20025;-82
2022/06/14 10:38:16;;;;;;;11.05;9.95;;;;;;;24.64;69.85;101098.09;5012129;28;19921;-83
2022/06/14 10:40:42;;;;;;;10.98;9.88;;;;;;;24.63;70.02;101096.31;5030754;28;20658;-82
2022/06/14 10:43:23;;;;;;;;;;;;;;;24.64;70.11;101096.34;5039068;28;20108;-81
2022/06/14 10:46:18;;;;;;;10.95;9.90;;;;;;;24.66;69.62;101094.56;5034802;28;20410;-82
2022/06/14 10:49:06;;;;;;;11.43;10.32;;;;;;;24.65;70.02;101081.19;5052452;28;20036;-82
2022/06/14 10:51:48;;;;;;;10.95;9.93;;;;;;;24.68;70.01;101087.44;5043488;28;20529;-82
2022/06/14 10:54:26;;;;;;;10.55;9.55;;;;;;;24.68;69.91;101082.09;5026687;28;20025;-83
2022/06/14 10:57:01;;;;;;;10.93;9.82;;;;;;;24.68;69.96;101082.09;5032360;28;20535;-78
2022/06/14 10:59:55;;;;;;;10.75;9.68;;;;;;;24.30;69.64;101008.16;5022350;28;20025;-79
2022/06/14 11:02:50;;;;;;;10.95;9.88;;;;;;;24.75;69.96;101086.53;4995041;28;20052;-80
2022/06/14 11:05:29;;;;;;;11.63;10.52;;;;;;;24.59;69.80;101060.69;5033498;28;20051;-81
2022/06/14 11:08:01;;;;;;;11.60;10.40;;;;;;;24.75;70.15;101080.31;5009298;28;20036;-79
2022/06/14 11:10:26;;;;;;;11.00;9.90;;;;;;;24.72;70.21;101080.28;5026876;28;20104;-80
2022/06/14 11:12:58;;;;;;;;;;;;;;;24.75;69.93;101080.31;5020925;28;20420;-80
2022/06/14 11:15:45;;;;;;;11.40;10.30;;;;;;;24.72;70.18;101074.94;5044684;28;19915;-80
2022/06/14 11:18:45;;;;;;;10.60;9.60;;;;;;;24.75;70.10;101067.84;5031617;28;20111;-80
2022/06/14 11:21:29;;;;;;;11.10;9.95;;;;;;;24.79;69.76;101066.97;5015140;28;20119;-80
2022/06/14 11:24:20;;;;;;;11.07;9.98;;;;;;;24.78;69.82;101062.47;5050501;28;20032;-80
2022/06/14 11:26:58;;;;;;;11.07;9.93;;;;;;;24.76;70.10;101064.31;5030391;28;20127;-80
2022/06/14 11:29:38;;;;;;;11.68;10.50;;;;;;;24.79;70.29;101058.94;5016343;28;20554;-80
2022/06/14 11:32:23;;;;;;;11.75;10.23;;;;;;;24.83;69.83;101054.50;5030336;28;20013;-80
2022/06/14 11:35:14;;;;;;;10.65;9.65;;;;;;;24.83;70.02;101046.50;5021218;28;20484;-80
2022/06/14 11:37:59;;;;;;;10.82;9.73;;;;;;;24.86;70.00;101040.25;5043064;28;20030;-81
2022/06/14 11:40:31;;;;;;;11.65;10.50;;;;;;;24.81;69.77;101034.00;4997566;28;20239;-80
2022/06/14 11:43:06;;;;;;;11.68;10.30;;;;;;;24.86;69.80;101029.56;5027106;28;20021;-80
2022/06/14 11:45:50;;;;;;;11.05;9.95;;;;;;;24.86;69.62;101025.09;5018112;28;20026;-80
2022/06/14 11:48:15;;;;;;;10.98;9.98;;;;;;;24.89;69.41;101024.19;5018779;28;20044;-80
2022/06/14 11:50:44;;;;;;;;;;;;;;;24.92;69.24;101026.88;5045152;28;20025;-80
2022/06/14 11:53:18;;;;;;;11.30;10.15;;;;;;;24.80;69.59;101003.72;5044261;28;19956;-80
2022/06/14 11:56:07;;;;;;;11.95;10.38;;;;;;;24.91;69.55;101019.75;5011921;28;20091;-80
2022/06/14 11:58:53;;;;;;;11.30;10.10;;;;;;;24.75;69.46;100987.72;5040230;28;20394;-80
2022/06/14 12:01:50;;;;;;;11.32;10.13;;;;;;;24.93;69.71;101015.28;5020729;28;20049;-80
2022/06/14 12:04:33;;;;;;;12.25;10.10;;;;;;;24.90;69.35;101007.28;5025591;28;20033;-80
2022/06/14 12:07:08;;;;;;;11.98;10.20;;;;;;;24.94;69.12;101017.09;5019531;28;20022;-81
2022/06/14 12:09:44;;;;;;;11.52;10.10;;;;;;;24.95;69.34;101014.38;5028324;28;20564;-80
2022/06/14 12:12:31;;;;;;;10.93;9.85;;;;;;;24.92;69.20;100985.03;5000278;28;20029;-79
2022/06/14 12:15:07;;;;;;;10.90;9.80;;;;;;;24.89;68.89;100989.47;5013797;28;20033;-80
2022/06/14 12:17:55;;;;;;;10.82;9.80;;;;;;;24.87;69.09;100981.47;5013174;28;20028;-81